createdAt,value
2022-09-02T00:00:08.837Z,17.59
2022-09-02T00:03:13.521Z,17.68
2022-09-02T00:06:17.876Z,17.79
2022-09-02T00:09:24.426Z,17.90
2022-09-02T00:12:28.300Z,18.08
2022-09-02T00:15:33.524Z,18.21
2022-09-02T00:18:36.691Z,18.36
2022-09-02T00:21:39.769Z,18.43
2022-09-02T00:24:43.010Z,18.55
2022-09-02T00:27:47.347Z,18.63
2022-09-02T00:30:51.145Z,18.65
2022-09-02T00:33:54.834Z,18.83
2022-09-02T00:36:59.019Z,19.03
2022-09-02T00:40:03.397Z,19.14
2022-09-02T00:43:09.211Z,19.25
2022-09-02T00:46:17.722Z,19.35
2022-09-02T00:49:34.282Z,19.32
2022-09-02T00:53:05.547Z,19.11
2022-09-02T00:56:14.513Z,19.16
2022-09-02T00:59:46.249Z,19.42
2022-09-02T01:02:54.004Z,19.53
2022-09-02T01:05:59.641Z,19.66
2022-09-02T01:09:15.102Z,19.90
2022-09-02T01:12:20.600Z,20.12
2022-09-02T01:15:24.983Z,20.25
2022-09-02T01:18:31.202Z,20.56
2022-09-02T01:21:35.025Z,20.71
2022-09-02T01:24:38.559Z,20.94
2022-09-02T01:27:43.119Z,20.96
2022-09-02T01:30:51.350Z,20.85
2022-09-02T01:33:55.686Z,21.27
2022-09-02T01:37:00.595Z,21.89
2022-09-02T01:40:05.504Z,22.65
2022-09-02T01:43:16.550Z,23.08
2022-09-02T01:46:24.261Z,23.68
2022-09-02T01:49:28.674Z,23.71
2022-09-02T01:52:36.282Z,24.08
2022-09-02T01:55:40.328Z,24.54
2022-09-02T01:58:44.207Z,24.71
2022-09-02T02:01:48.583Z,25.02
2022-09-02T02:04:55.610Z,24.83
2022-09-02T02:07:59.393Z,24.88
2022-09-02T02:11:02.954Z,25.47
2022-09-02T02:14:07.474Z,25.76
2022-09-02T02:17:12.296Z,25.76
2022-09-02T02:20:18.046Z,26.07
2022-09-02T02:23:21.963Z,26.10
2022-09-02T02:26:25.803Z,26.52
2022-09-02T02:29:30.203Z,26.86
2022-09-02T02:32:36.417Z,26.87
2022-09-02T02:35:41.382Z,27.30
2022-09-02T02:38:47.284Z,28.15
2022-09-02T02:41:51.509Z,28.20
2022-09-02T02:44:55.574Z,28.35
2022-09-02T02:47:59.919Z,28.58
2022-09-02T02:51:04.526Z,29.21
2022-09-02T02:54:09.393Z,29.74
2022-09-02T02:57:13.229Z,29.74
2022-09-02T03:00:22.567Z,30.38
2022-09-02T03:03:26.819Z,30.78
2022-09-02T03:06:32.476Z,30.71
2022-09-02T03:09:37.482Z,30.80
2022-09-02T03:12:42.709Z,31.00
2022-09-02T03:15:46.711Z,31.50
2022-09-02T03:18:52.235Z,31.55
2022-09-02T03:21:56.090Z,31.43
2022-09-02T03:25:00.331Z,30.68
2022-09-02T03:28:05.221Z,30.67
2022-09-02T03:31:14.434Z,30.89
2022-09-02T03:34:19.081Z,31.59
2022-09-02T03:37:23.391Z,32.23
2022-09-02T03:40:29.091Z,32.39
2022-09-02T03:43:32.733Z,30.97
2022-09-02T03:46:36.715Z,31.05
2022-09-02T03:49:43.674Z,32.01
2022-09-02T03:52:48.595Z,31.66
2022-09-02T03:55:53.221Z,31.16
2022-09-02T03:58:59.663Z,29.76
2022-09-02T04:02:04.906Z,29.71
2022-09-02T04:05:13.700Z,30.35
2022-09-02T04:08:21.854Z,30.66
2022-09-02T04:11:27.087Z,31.59
2022-09-02T04:14:31.013Z,30.79
2022-09-02T04:17:37.688Z,29.60
2022-09-02T04:20:44.627Z,29.77
2022-09-02T04:23:48.456Z,29.57
2022-09-02T04:26:52.970Z,29.48
2022-09-02T04:29:56.879Z,29.03
2022-09-02T04:33:00.711Z,28.73
2022-09-02T04:36:08.177Z,29.35
2022-09-02T04:39:11.702Z,29.58
2022-09-02T04:42:15.961Z,29.66
2022-09-02T04:45:20.757Z,29.32
2022-09-02T04:48:24.976Z,29.73
2022-09-02T04:51:29.440Z,29.59
2022-09-02T04:54:36.292Z,29.98
2022-09-02T04:57:41.549Z,29.60
2022-09-02T05:00:44.935Z,28.90
2022-09-02T05:03:50.137Z,28.42
2022-09-02T05:06:55.240Z,27.73
2022-09-02T05:10:00.748Z,27.70
2022-09-02T05:13:08.097Z,27.12
2022-09-02T05:16:16.800Z,27.78
2022-09-02T05:19:24.192Z,29.43
2022-09-02T05:22:30.107Z,29.15
2022-09-02T05:25:37.028Z,29.70
2022-09-02T05:28:43.185Z,30.07
2022-09-02T05:31:49.357Z,28.78
2022-09-02T05:34:53.147Z,28.16
2022-09-02T05:38:00.767Z,28.90
2022-09-02T05:41:11.846Z,28.75
2022-09-02T05:44:16.620Z,29.62
2022-09-02T05:47:21.015Z,29.72
2022-09-02T05:50:25.569Z,31.15
2022-09-02T05:53:34.417Z,31.48
2022-09-02T05:56:41.131Z,33.10
2022-09-02T05:59:56.576Z,35.22
2022-09-02T06:03:05.095Z,33.39
2022-09-02T06:06:13.776Z,31.95
2022-09-02T06:09:20.907Z,30.47
2022-09-02T06:12:25.980Z,29.54
2022-09-02T06:15:31.595Z,28.99
2022-09-02T06:18:37.949Z,28.51
2022-09-02T06:21:43.173Z,27.92
2022-09-02T06:24:47.394Z,27.60
2022-09-02T06:27:56.096Z,27.52
2022-09-02T06:31:00.288Z,28.01
2022-09-02T06:34:05.177Z,28.22
2022-09-02T06:37:08.546Z,28.38
2022-09-02T06:40:16.101Z,27.75
2022-09-02T06:43:21.152Z,27.52
2022-09-02T06:46:46.877Z,28.74
2022-09-02T06:49:51.152Z,29.26
2022-09-02T06:52:56.644Z,29.75
2022-09-02T06:56:00.147Z,29.09
2022-09-02T06:59:07.166Z,28.43
2022-09-02T07:02:23.805Z,27.94
2022-09-02T07:05:28.940Z,27.97
2022-09-02T07:08:32.072Z,30.08
2022-09-02T07:11:36.670Z,30.62
2022-09-02T07:14:43.069Z,31.43
2022-09-02T07:17:50.261Z,30.18
2022-09-02T07:21:02.464Z,29.76
2022-09-02T07:24:11.106Z,29.80
2022-09-02T07:27:15.659Z,30.88
2022-09-02T07:30:20.162Z,30.94
2022-09-02T07:33:28.824Z,31.45
2022-09-02T07:36:33.055Z,31.37
2022-09-02T07:39:37.774Z,32.34
2022-09-02T07:42:42.145Z,33.15
2022-09-02T07:45:45.595Z,32.78
2022-09-02T07:48:53.351Z,30.37
2022-09-02T07:51:57.841Z,28.98
2022-09-02T07:55:01.804Z,28.43
2022-09-02T07:58:06.417Z,28.21
2022-09-02T08:01:11.832Z,27.93
2022-09-02T08:04:19.641Z,27.77
2022-09-02T08:07:24.771Z,27.61
2022-09-02T08:10:30.734Z,27.99
2022-09-02T08:13:35.501Z,30.17
2022-09-02T08:16:39.674Z,32.10
2022-09-02T08:19:45.153Z,32.87
2022-09-02T08:22:55.889Z,33.13
2022-09-02T08:26:09.249Z,32.20
2022-09-02T08:29:13.018Z,32.01
2022-09-02T08:32:17.285Z,30.22
2022-09-02T08:35:21.522Z,30.20
2022-09-02T08:38:25.628Z,29.03
2022-09-02T08:42:09.840Z,28.41
2022-09-02T08:45:21.742Z,28.60
2022-09-02T08:48:38.540Z,29.78
2022-09-02T08:52:02.444Z,29.27
2022-09-02T08:55:08.436Z,28.40
2022-09-02T08:58:17.959Z,28.46
2022-09-02T09:01:32.035Z,32.83
2022-09-02T09:04:56.817Z,35.36
2022-09-02T09:08:21.866Z,36.37
2022-09-02T09:11:53.070Z,35.50
2022-09-02T09:15:22.641Z,34.61
2022-09-02T09:18:39.189Z,34.47
2022-09-02T09:21:45.034Z,34.63
2022-09-02T09:24:50.828Z,35.36
2022-09-02T09:27:54.923Z,34.76
2022-09-02T09:31:01.584Z,32.18
2022-09-02T09:34:11.069Z,32.81
2022-09-02T09:37:33.883Z,34.60
2022-09-02T09:40:40.055Z,34.05
2022-09-02T09:43:44.300Z,33.97
2022-09-02T09:46:49.467Z,34.21
2022-09-02T09:50:12.892Z,35.59
2022-09-02T09:53:30.958Z,32.99
2022-09-02T09:56:37.533Z,32.07
2022-09-02T09:59:48.431Z,30.42
2022-09-02T10:02:55.665Z,29.49
2022-09-02T10:06:17.637Z,29.43
2022-09-02T10:09:21.282Z,28.79
2022-09-02T10:12:34.842Z,28.61
2022-09-02T10:15:50.003Z,30.50
2022-09-02T10:19:15.339Z,30.55
2022-09-02T10:23:29.767Z,31.08
2022-09-02T10:26:45.627Z,31.50
2022-09-02T10:30:17.875Z,31.08
2022-09-02T10:33:58.334Z,29.54
2022-09-02T10:37:07.670Z,28.69
2022-09-02T10:40:17.452Z,28.06
2022-09-02T10:43:47.616Z,27.49
2022-09-02T10:47:10.831Z,27.09
2022-09-02T10:50:30.890Z,26.54
2022-09-02T10:54:19.793Z,26.36
2022-09-02T10:57:36.493Z,25.91
2022-09-02T11:00:42.149Z,25.60
2022-09-02T11:04:00.803Z,25.45
2022-09-02T11:07:08.005Z,25.17
2022-09-02T11:10:31.921Z,24.97
2022-09-02T11:13:41.674Z,24.68
2022-09-02T11:17:03.485Z,24.57
2022-09-02T11:20:19.610Z,24.41
2022-09-02T11:23:31.452Z,24.35
2022-09-02T11:26:45.217Z,24.34
2022-09-02T11:30:06.658Z,24.26
2022-09-02T11:33:36.379Z,24.19
2022-09-02T11:36:41.877Z,24.10
2022-09-02T11:40:02.394Z,24.04
2022-09-02T11:43:36.527Z,24.11
2022-09-02T11:46:49.926Z,23.96
2022-09-02T11:50:12.265Z,23.91
2022-09-02T11:53:38.928Z,23.80
2022-09-02T11:56:51.161Z,23.67
2022-09-02T11:59:55.807Z,23.53
2022-09-02T12:03:46.862Z,23.51
2022-09-02T12:07:10.436Z,23.42
2022-09-02T12:10:48.976Z,23.30
2022-09-02T12:13:52.033Z,23.17
2022-09-02T12:17:06.361Z,23.16
2022-09-02T12:20:40.151Z,23.10
2022-09-02T12:23:57.938Z,23.00
2022-09-02T12:27:01.832Z,22.86
2022-09-02T12:30:13.305Z,22.77
2022-09-02T12:33:34.615Z,22.62
2022-09-02T12:36:41.953Z,22.48
2022-09-02T12:39:52.201Z,22.39
2022-09-02T12:43:00.148Z,22.27
2022-09-02T12:46:20.296Z,22.26
2022-09-02T12:49:24.447Z,22.11
2022-09-02T12:52:43.919Z,22.07
2022-09-02T12:56:22.480Z,22.08
2022-09-02T12:59:38.055Z,22.06
2022-09-02T13:03:13.844Z,22.03
2022-09-02T13:06:38.571Z,21.97
2022-09-02T13:10:06.933Z,22.01
2022-09-02T13:13:22.517Z,21.93
2022-09-02T13:16:38.554Z,21.84
2022-09-02T13:20:07.149Z,21.73
2022-09-02T13:23:31.310Z,21.54
2022-09-02T13:26:53.524Z,21.41
2022-09-02T13:30:20.661Z,21.37
2022-09-02T13:33:24.387Z,21.25
2022-09-02T13:36:57.254Z,21.28
2022-09-02T13:40:04.538Z,21.20
2022-09-02T13:43:14.462Z,21.20
2022-09-02T13:46:17.612Z,21.13
2022-09-02T13:49:37.422Z,21.08
2022-09-02T13:53:49.158Z,20.99
2022-09-02T13:56:11.836Z,20.89
2022-09-02T13:59:32.575Z,20.74
2022-09-02T14:02:37.861Z,20.53
2022-09-02T14:05:47.617Z,20.47
2022-09-02T14:08:59.590Z,20.35
2022-09-02T14:12:05.386Z,20.16
2022-09-02T14:15:13.854Z,20.06
2022-09-02T14:18:21.328Z,19.98
2022-09-02T14:21:24.913Z,19.87
2022-09-02T14:24:40.425Z,19.86
2022-09-02T14:27:52.706Z,19.74
2022-09-02T14:30:57.768Z,19.68
2022-09-02T14:34:07.399Z,19.63
2022-09-02T14:37:19.641Z,19.49
2022-09-02T14:40:48.556Z,19.35
2022-09-02T14:44:10.022Z,19.24
2022-09-02T14:47:20.802Z,19.11
2022-09-02T14:50:35.294Z,18.97
2022-09-02T14:53:38.986Z,18.78
2022-09-02T14:56:54.637Z,18.73
2022-09-02T15:00:12.257Z,18.62
2022-09-02T15:03:19.482Z,18.52
2022-09-02T15:06:22.533Z,18.34
2022-09-02T15:09:26.276Z,18.22
2022-09-02T15:12:41.868Z,18.18
2022-09-02T15:15:46.082Z,18.06
2022-09-02T15:18:52.183Z,17.93
2022-09-02T15:21:55.927Z,17.88
2022-09-02T15:24:59.464Z,17.89
2022-09-02T15:28:03.485Z,17.78
2022-09-02T15:31:07.395Z,17.53
2022-09-02T15:34:11.297Z,17.38
2022-09-02T15:37:14.651Z,17.30
2022-09-02T15:40:18.287Z,17.24
2022-09-02T15:43:22.460Z,17.27
2022-09-02T15:46:35.162Z,17.28
2022-09-02T15:49:38.894Z,17.19
2022-09-02T15:52:41.949Z,17.14
2022-09-02T15:55:46.134Z,17.12
2022-09-02T15:58:54.960Z,17.12
2022-09-02T16:02:03.125Z,17.12
2022-09-02T16:05:06.887Z,17.08
2022-09-02T16:08:12.343Z,16.99
2022-09-02T16:11:16.990Z,16.83
2022-09-02T16:14:21.547Z,16.75
2022-09-02T16:17:25.342Z,16.69
2022-09-02T16:20:29.259Z,16.58
2022-09-02T16:23:33.873Z,16.51
2022-09-02T16:26:40.755Z,16.49
2022-09-02T16:29:43.905Z,16.28
2022-09-02T16:32:48.617Z,16.21
2022-09-02T16:35:52.809Z,16.23
2022-09-02T16:38:56.530Z,16.14
2022-09-02T16:42:04.684Z,16.10
2022-09-02T16:45:09.143Z,16.03
2022-09-02T16:48:13.213Z,16.12
2022-09-02T16:51:18.007Z,15.95
2022-09-02T16:54:30.688Z,15.81
2022-09-02T16:57:36.107Z,15.68
2022-09-02T17:00:40.163Z,15.56
2022-09-02T17:03:46.196Z,15.43
2022-09-02T17:06:49.580Z,15.45
2022-09-02T17:09:53.797Z,15.53
2022-09-02T17:12:58.344Z,15.59
2022-09-02T17:16:02.528Z,15.66
2022-09-02T17:19:06.180Z,15.20
2022-09-02T17:22:10.288Z,14.88
2022-09-02T17:25:14.526Z,14.68
2022-09-02T17:28:17.893Z,14.66
2022-09-02T17:31:26.098Z,14.68
2022-09-02T17:34:29.237Z,14.54
2022-09-02T17:37:35.526Z,14.49
2022-09-02T17:40:57.305Z,14.43
2022-09-02T17:44:01.517Z,14.45
2022-09-02T17:47:21.003Z,14.46
2022-09-02T17:50:24.094Z,14.31
2022-09-02T17:53:28.328Z,14.24
2022-09-02T17:56:41.210Z,14.28
2022-09-02T18:00:11.072Z,14.36
2022-09-02T18:03:25.958Z,14.30
2022-09-02T18:06:34.572Z,14.24
2022-09-02T18:09:39.483Z,14.24
2022-09-02T18:12:43.755Z,14.37
2022-09-02T18:15:53.187Z,14.36
2022-09-02T18:19:23.603Z,14.51
2022-09-02T18:22:58.618Z,14.46
2022-09-02T18:26:14.492Z,14.12
2022-09-02T18:29:49.389Z,13.87
2022-09-02T18:33:30.235Z,13.91
2022-09-02T18:36:56.912Z,13.94
2022-09-02T18:40:33.067Z,13.96
2022-09-02T18:43:58.040Z,13.93
2022-09-02T18:47:11.781Z,13.89
2022-09-02T18:50:47.705Z,13.87
2022-09-02T18:53:56.567Z,13.90
2022-09-02T18:57:05.828Z,13.86
2022-09-02T19:00:13.596Z,13.87
2022-09-02T19:03:17.960Z,13.77
2022-09-02T19:06:24.511Z,13.74
2022-09-02T19:09:28.348Z,13.77
2022-09-02T19:12:34.723Z,13.82
2022-09-02T19:15:40.107Z,13.79
2022-09-02T19:18:45.540Z,13.73
2022-09-02T19:21:55.660Z,13.69
2022-09-02T19:25:06.375Z,13.72
2022-09-02T19:28:13.275Z,13.79
2022-09-02T19:31:22.961Z,13.85
2022-09-02T19:34:34.398Z,13.57
2022-09-02T19:37:44.556Z,13.03
2022-09-02T19:40:49.846Z,12.72
2022-09-02T19:43:54.945Z,12.66
2022-09-02T19:50:22.448Z,12.59
2022-09-02T19:53:33.315Z,12.61
2022-09-02T19:56:37.787Z,12.59
2022-09-02T19:59:40.831Z,12.52
2022-09-02T20:02:44.897Z,12.51
2022-09-02T20:05:52.945Z,12.54
2022-09-02T20:08:57.414Z,12.60
2022-09-02T20:12:00.425Z,12.65
2022-09-02T20:15:05.334Z,12.56
2022-09-02T20:18:15.073Z,12.47
2022-09-02T20:21:32.770Z,12.53
2022-09-02T20:24:35.992Z,12.52
2022-09-02T20:28:01.225Z,12.50
2022-09-02T20:31:14.600Z,12.47
2022-09-02T20:34:36.390Z,12.47
2022-09-02T20:37:52.520Z,12.49
2022-09-02T20:41:15.028Z,12.55
2022-09-02T20:44:41.707Z,12.62
2022-09-02T20:47:58.996Z,12.74
2022-09-02T20:51:02.233Z,12.81
2022-09-02T20:54:48.187Z,12.93
2022-09-02T20:58:16.650Z,12.83
2022-09-02T21:01:26.494Z,12.48
2022-09-02T21:04:41.482Z,12.14
2022-09-02T21:07:49.155Z,11.69
2022-09-02T21:10:56.951Z,11.31
2022-09-02T21:14:13.546Z,11.17
2022-09-02T21:17:28.095Z,11.16
2022-09-02T21:20:51.963Z,11.23
2022-09-02T21:24:04.081Z,11.33
2022-09-02T21:27:13.563Z,11.36
2022-09-02T21:30:25.970Z,11.40
2022-09-02T21:33:31.990Z,11.35
2022-09-02T21:36:38.206Z,11.34
2022-09-02T21:39:48.618Z,11.25
2022-09-02T21:42:52.835Z,11.25
2022-09-02T21:46:08.829Z,11.29
2022-09-02T21:49:42.253Z,11.32
2022-09-02T21:52:55.946Z,10.97
2022-09-02T21:56:17.752Z,10.99
2022-09-02T21:59:21.204Z,11.01
2022-09-02T22:02:50.556Z,11.13
2022-09-02T22:06:08.421Z,11.09
2022-09-02T22:09:31.582Z,11.10
2022-09-02T22:12:42.078Z,11.03
2022-09-02T22:15:58.319Z,11.02
2022-09-02T22:19:06.775Z,11.08
2022-09-02T22:22:22.295Z,11.09
2022-09-02T22:25:26.857Z,11.07
2022-09-02T22:28:38.013Z,11.07
2022-09-02T22:31:46.059Z,11.16
2022-09-02T22:35:28.163Z,11.32
2022-09-02T22:38:49.459Z,11.43
2022-09-02T22:42:10.677Z,11.52
2022-09-02T22:45:42.423Z,11.62
2022-09-02T22:49:18.515Z,11.80
2022-09-02T22:52:51.050Z,11.88
2022-09-02T22:55:59.666Z,12.03
2022-09-02T22:59:17.761Z,12.16
2022-09-02T23:02:28.816Z,12.28
2022-09-02T23:05:49.158Z,12.17
2022-09-02T23:08:55.359Z,12.20
2022-09-02T23:12:27.656Z,12.31
2022-09-02T23:15:53.358Z,12.33
2022-09-02T23:19:16.241Z,12.27
2022-09-02T23:22:46.446Z,12.04
2022-09-02T23:26:10.762Z,11.61
2022-09-02T23:29:28.424Z,11.50
2022-09-02T23:32:47.220Z,11.57
2022-09-02T23:36:17.813Z,11.69
2022-09-02T23:39:58.645Z,11.84
2022-09-02T23:43:02.165Z,12.03
2022-09-02T23:46:26.408Z,12.39
2022-09-02T23:50:15.042Z,12.59
2022-09-02T23:53:27.548Z,12.56
2022-09-02T23:57:06.605Z,12.61
